createdAt,value
2017-12-21T00:04:10.689Z,4.30
2017-12-21T00:09:14.096Z,5.00
2017-12-21T00:14:17.456Z,3.40
2017-12-21T00:19:20.051Z,3.37
2017-12-21T00:24:22.627Z,4.10
2017-12-21T00:29:25.240Z,3.77
2017-12-21T00:34:27.871Z,3.50
2017-12-21T00:39:30.484Z,5.03
2017-12-21T00:44:33.845Z,4.10
2017-12-21T00:49:36.464Z,3.90
2017-12-21T00:54:39.138Z,5.40
2017-12-21T00:59:41.754Z,4.00
2017-12-21T01:04:44.394Z,4.20
2017-12-21T01:09:47.026Z,3.50
2017-12-21T01:14:49.647Z,4.83
2017-12-21T01:19:53.187Z,4.40
2017-12-21T01:24:55.779Z,3.30
2017-12-21T01:29:58.543Z,4.30
2017-12-21T01:35:01.127Z,4.33
2017-12-21T01:40:03.748Z,3.20
2017-12-21T01:45:06.367Z,4.30
2017-12-21T01:50:09.765Z,3.10
2017-12-21T01:55:12.398Z,3.53
2017-12-21T02:00:15.029Z,4.17
2017-12-21T02:05:17.606Z,3.13
2017-12-21T02:10:21.004Z,4.83
2017-12-21T02:15:25.207Z,3.93
2017-12-21T02:20:27.870Z,3.13
2017-12-21T02:25:30.497Z,3.60
2017-12-21T02:30:33.163Z,4.43
2017-12-21T02:35:35.783Z,4.87
2017-12-21T02:40:38.382Z,4.00
2017-12-21T02:45:40.950Z,3.10
2017-12-21T02:50:43.524Z,3.27
2017-12-21T02:55:46.217Z,3.70
2017-12-21T03:00:52.809Z,3.63
2017-12-21T03:05:56.274Z,3.50
2017-12-21T03:10:59.754Z,3.27
2017-12-21T03:16:02.531Z,3.27
2017-12-21T03:21:05.643Z,3.17
2017-12-21T03:26:08.273Z,3.53
2017-12-21T03:31:10.896Z,4.47
2017-12-21T03:36:13.467Z,3.40
2017-12-21T03:41:16.051Z,3.33
2017-12-21T03:46:18.686Z,3.90
2017-12-21T03:51:22.058Z,2.97
2017-12-21T03:56:24.675Z,3.07
2017-12-21T04:01:27.257Z,3.60
2017-12-21T04:06:30.618Z,3.77
2017-12-21T04:11:33.231Z,3.93
2017-12-21T04:16:35.835Z,3.97
2017-12-21T04:21:38.410Z,3.60
2017-12-21T04:26:41.025Z,3.07
2017-12-21T04:31:43.601Z,3.93
2017-12-21T04:36:46.513Z,3.80
2017-12-21T04:41:49.074Z,3.00
2017-12-21T04:46:52.470Z,4.37
2017-12-21T04:51:55.081Z,3.30
2017-12-21T04:56:57.679Z,2.80
2017-12-21T05:02:00.259Z,4.27
2017-12-21T05:07:03.622Z,3.10
2017-12-21T05:12:06.266Z,3.23
2017-12-21T05:17:09.669Z,3.20
2017-12-21T05:22:13.053Z,3.90
2017-12-21T05:27:15.690Z,3.23
2017-12-21T05:32:18.318Z,2.60
2017-12-21T05:37:20.927Z,4.10
2017-12-21T05:42:23.492Z,4.43
2017-12-21T05:47:26.101Z,3.43
2017-12-21T05:52:28.866Z,3.23
2017-12-21T05:57:31.512Z,3.33
2017-12-21T06:02:34.058Z,4.20
2017-12-21T06:07:36.660Z,2.67
2017-12-21T06:12:40.025Z,3.10
2017-12-21T06:17:42.618Z,3.30
2017-12-21T06:22:45.898Z,2.40
2017-12-21T06:27:49.134Z,3.10
2017-12-21T06:32:51.747Z,3.50
2017-12-21T06:37:54.374Z,2.60
2017-12-21T06:42:57.068Z,4.03
2017-12-21T06:47:59.678Z,3.03
2017-12-21T06:53:02.319Z,4.23
2017-12-21T06:58:04.884Z,2.63
2017-12-21T07:03:07.510Z,3.60
2017-12-21T07:08:10.184Z,3.10
2017-12-21T07:13:12.924Z,2.77
2017-12-21T07:18:15.550Z,3.20
2017-12-21T07:23:18.923Z,3.03
2017-12-21T07:28:21.565Z,2.93
2017-12-21T07:33:24.246Z,3.20
2017-12-21T07:38:26.823Z,3.03
2017-12-21T07:43:29.474Z,2.40
2017-12-21T07:48:32.594Z,3.33
2017-12-21T07:53:36.130Z,3.00
2017-12-21T07:58:38.726Z,3.13
2017-12-21T08:03:41.562Z,2.87
2017-12-21T08:08:44.997Z,3.70
2017-12-21T08:13:47.793Z,3.60
2017-12-21T08:18:50.615Z,3.70
2017-12-21T08:23:53.230Z,2.70
2017-12-21T08:28:57.163Z,3.00
2017-12-21T08:34:00.243Z,3.10
2017-12-21T08:39:02.862Z,2.70
2017-12-21T08:44:05.521Z,2.93
2017-12-21T08:49:08.318Z,2.63
2017-12-21T08:54:11.156Z,2.63
2017-12-21T08:59:13.884Z,3.30
2017-12-21T09:04:17.789Z,2.50
2017-12-21T09:09:21.198Z,2.80
2017-12-21T09:14:23.814Z,2.70
2017-12-21T09:19:26.544Z,3.20
2017-12-21T09:24:29.152Z,3.73
2017-12-21T09:29:32.597Z,3.97
2017-12-21T09:34:35.192Z,2.93
2017-12-21T09:39:38.556Z,2.70
2017-12-21T09:44:41.153Z,2.93
2017-12-21T09:49:43.739Z,2.30
2017-12-21T09:54:46.387Z,3.00
2017-12-21T09:59:49.001Z,3.00
2017-12-21T10:04:52.238Z,2.70
2017-12-21T10:09:54.867Z,3.13
2017-12-21T10:14:57.530Z,2.27
2017-12-21T10:20:00.213Z,3.17
2017-12-21T10:25:02.963Z,2.20
2017-12-21T10:30:05.678Z,3.07
2017-12-21T10:35:08.273Z,2.50
2017-12-21T10:40:10.907Z,2.30
2017-12-21T10:45:13.539Z,2.20
2017-12-21T10:50:16.163Z,3.13
2017-12-21T10:55:18.834Z,2.40
2017-12-21T11:00:21.632Z,2.53
2017-12-21T11:05:24.289Z,2.50
2017-12-21T11:10:27.643Z,3.00
2017-12-21T11:15:30.281Z,3.13
2017-12-21T11:20:33.363Z,3.03
2017-12-21T11:25:36.058Z,3.23
2017-12-21T11:30:38.776Z,3.60
2017-12-21T11:35:41.446Z,2.80
2017-12-21T11:40:44.110Z,2.87
2017-12-21T11:45:47.313Z,2.93
2017-12-21T11:50:50.754Z,2.43
2017-12-21T11:55:53.387Z,2.70
2017-12-21T12:00:56.041Z,2.67
2017-12-21T12:05:58.735Z,3.00
2017-12-21T12:11:01.556Z,2.17
2017-12-21T12:16:04.286Z,3.10
2017-12-21T12:21:07.637Z,2.50
2017-12-21T12:26:10.317Z,2.63
2017-12-21T12:31:12.994Z,2.63
2017-12-21T12:36:15.580Z,2.50
2017-12-21T12:41:19.145Z,3.23
2017-12-21T12:46:21.825Z,3.10
2017-12-21T12:51:25.227Z,5.13
2017-12-21T12:56:28.650Z,2.40
2017-12-21T13:01:31.408Z,3.30
2017-12-21T13:06:34.032Z,2.47
2017-12-21T13:11:37.409Z,2.63
2017-12-21T13:16:40.042Z,2.77
2017-12-21T13:21:42.669Z,2.40
2017-12-21T13:26:45.896Z,2.60
2017-12-21T13:31:48.548Z,2.40
2017-12-21T13:36:52.007Z,2.43
2017-12-21T13:41:54.888Z,2.57
2017-12-21T13:46:57.534Z,3.60
2017-12-21T13:52:00.152Z,2.93
2017-12-21T13:57:02.777Z,2.60
2017-12-21T14:02:05.418Z,3.10
2017-12-21T14:07:08.037Z,2.47
2017-12-21T14:12:11.398Z,1.83
2017-12-21T14:17:13.999Z,2.30
2017-12-21T14:22:16.672Z,2.37
2017-12-21T14:27:19.308Z,2.80
2017-12-21T14:32:25.047Z,2.53
2017-12-21T14:37:28.580Z,2.33
2017-12-21T14:42:31.240Z,2.50
2017-12-21T14:47:34.596Z,2.50
2017-12-21T14:52:37.456Z,2.53
2017-12-21T14:57:40.045Z,3.00
2017-12-21T15:02:42.654Z,2.13
2017-12-21T15:07:45.468Z,2.80
2017-12-21T15:12:48.306Z,2.63
2017-12-21T15:17:52.414Z,2.40
2017-12-21T15:22:55.017Z,2.10
2017-12-21T15:27:57.672Z,2.40
2017-12-21T15:33:00.786Z,3.13
2017-12-21T15:38:03.403Z,2.00
2017-12-21T15:43:06.216Z,2.10
2017-12-21T15:48:08.892Z,3.90
2017-12-21T15:53:11.594Z,2.27
2017-12-21T15:58:14.319Z,2.20
2017-12-21T16:03:16.919Z,2.80
2017-12-21T16:08:19.563Z,2.47
2017-12-21T16:13:22.771Z,2.43
2017-12-21T16:18:25.996Z,2.20
2017-12-21T16:23:28.727Z,5.03
2017-12-21T16:28:31.604Z,2.07
2017-12-21T16:33:34.781Z,2.70
2017-12-21T16:38:37.680Z,2.00
2017-12-21T16:43:41.775Z,2.60
2017-12-21T16:48:44.956Z,2.10
2017-12-21T16:53:48.311Z,2.50
2017-12-21T16:58:50.983Z,2.20
2017-12-21T17:03:53.588Z,2.50
2017-12-21T17:08:56.813Z,2.80
2017-12-21T17:14:00.243Z,2.33
2017-12-21T17:19:04.701Z,2.60
2017-12-21T17:24:07.496Z,2.27
2017-12-21T17:29:10.077Z,2.37
2017-12-21T17:34:12.752Z,2.27
2017-12-21T17:39:16.114Z,2.40
2017-12-21T17:44:18.989Z,2.03
2017-12-21T17:49:22.424Z,2.57
2017-12-21T17:54:25.098Z,2.63
2017-12-21T17:59:27.744Z,1.77
2017-12-21T18:04:30.498Z,2.00
2017-12-21T18:09:33.385Z,2.93
2017-12-21T18:14:36.089Z,1.87
2017-12-21T18:19:38.726Z,2.60
2017-12-21T18:24:41.439Z,2.17
2017-12-21T18:29:44.098Z,2.00
2017-12-21T18:34:46.678Z,2.10
2017-12-21T18:39:49.314Z,2.03
2017-12-21T18:44:51.918Z,2.00
2017-12-21T18:49:55.269Z,1.67
2017-12-21T18:54:57.899Z,2.20
2017-12-21T19:00:00.516Z,2.87
2017-12-21T19:05:04.419Z,2.53
2017-12-21T19:10:07.066Z,2.97
2017-12-21T19:15:10.134Z,2.07
2017-12-21T19:20:12.807Z,2.57
2017-12-21T19:25:16.040Z,2.07
2017-12-21T19:30:18.715Z,1.87
2017-12-21T19:35:21.278Z,1.90
2017-12-21T19:40:24.060Z,2.03
2017-12-21T19:45:26.697Z,1.77
2017-12-21T19:50:29.360Z,2.40
2017-12-21T19:55:32.165Z,1.93
2017-12-21T20:00:34.801Z,2.20
2017-12-21T20:05:37.439Z,2.43
2017-12-21T20:10:41.217Z,1.70
2017-12-21T20:15:43.799Z,1.80
2017-12-21T20:20:46.398Z,1.87
2017-12-21T20:25:49.021Z,2.30
2017-12-21T20:30:51.682Z,2.33
2017-12-21T20:35:54.270Z,2.10
2017-12-21T20:40:57.808Z,2.00
2017-12-21T20:46:00.517Z,3.10
2017-12-21T20:51:03.093Z,1.77
2017-12-21T20:56:05.675Z,2.20
2017-12-21T21:01:09.188Z,1.90
2017-12-21T21:06:13.437Z,2.17
2017-12-21T21:11:16.021Z,1.77
2017-12-21T21:16:19.428Z,1.60
2017-12-21T21:21:22.869Z,1.80
2017-12-21T21:26:25.506Z,1.87
2017-12-21T21:31:28.264Z,1.70
2017-12-21T21:36:30.880Z,2.70
2017-12-21T21:41:33.524Z,1.50
2017-12-21T21:46:36.875Z,1.53
2017-12-21T21:51:39.519Z,2.00
2017-12-21T21:56:42.101Z,1.87
2017-12-21T22:01:44.711Z,2.30
2017-12-21T22:06:47.984Z,1.93
2017-12-21T22:11:50.864Z,2.40
2017-12-21T22:16:53.439Z,2.33
2017-12-21T22:21:56.052Z,1.70
2017-12-21T22:26:58.645Z,1.90
2017-12-21T22:32:01.341Z,1.80
2017-12-21T22:37:03.940Z,1.43
2017-12-21T22:42:06.616Z,1.90
2017-12-21T22:47:09.329Z,2.53
2017-12-21T22:52:12.411Z,1.80
2017-12-21T22:57:16.573Z,2.00
2017-12-21T23:02:19.187Z,2.23
2017-12-21T23:07:21.817Z,1.80
2017-12-21T23:12:24.521Z,2.10
2017-12-21T23:17:27.379Z,1.60
2017-12-21T23:22:31.181Z,1.30
2017-12-21T23:27:33.976Z,2.27
2017-12-21T23:32:36.595Z,2.00
2017-12-21T23:37:39.275Z,1.87
2017-12-21T23:42:41.971Z,1.73
2017-12-21T23:47:44.637Z,1.60
2017-12-21T23:52:47.207Z,2.03
2017-12-21T23:57:49.904Z,2.23
